createdAt,value
2023-03-27T00:00:36.704Z,67.13
2023-03-27T00:01:42.642Z,67.15
2023-03-27T00:02:34.571Z,67.17
2023-03-27T00:03:26.610Z,67.10
2023-03-27T00:04:18.795Z,67.10
2023-03-27T00:05:11.136Z,67.16
2023-03-27T00:05:45.943Z,66.95
2023-03-27T00:06:37.970Z,66.99
2023-03-27T00:07:29.939Z,66.79
2023-03-27T00:08:21.745Z,66.12
2023-03-27T00:09:13.596Z,66.41
2023-03-27T00:10:05.499Z,66.56
2023-03-27T00:10:57.666Z,66.59
2023-03-27T00:11:49.656Z,66.62
2023-03-27T00:12:41.617Z,66.56
2023-03-27T00:13:28.073Z,66.59
2023-03-27T00:14:19.836Z,66.53
2023-03-27T00:15:11.598Z,66.52
2023-03-27T00:16:03.499Z,66.56
2023-03-27T00:16:55.376Z,66.59
2023-03-27T00:17:50.047Z,66.61
2023-03-27T00:18:42.015Z,66.65
2023-03-27T00:19:33.877Z,66.67
2023-03-27T00:20:25.740Z,66.64
2023-03-27T00:21:17.451Z,66.32
2023-03-27T00:22:09.194Z,66.08
2023-03-27T00:23:00.900Z,66.02
2023-03-27T00:23:51.863Z,66.02
2023-03-27T00:24:43.783Z,66.16
2023-03-27T00:25:35.717Z,66.20
2023-03-27T00:26:27.418Z,65.97
2023-03-27T00:27:19.299Z,66.16
2023-03-27T00:28:11.171Z,65.83
2023-03-27T00:28:52.001Z,65.89
2023-03-27T00:29:37.221Z,66.02
2023-03-27T00:30:29.151Z,65.90
2023-03-27T00:31:21.001Z,65.97
2023-03-27T00:32:13.020Z,66.23
2023-03-27T00:33:04.823Z,66.33
2023-03-27T00:33:39.556Z,66.39
2023-03-27T00:34:31.660Z,66.40
2023-03-27T00:35:23.593Z,66.41
2023-03-27T00:36:15.559Z,66.48
2023-03-27T00:37:07.389Z,66.47
2023-03-27T00:37:59.245Z,66.49
2023-03-27T00:38:51.003Z,66.51
2023-03-27T00:39:42.811Z,66.54
2023-03-27T00:40:34.720Z,66.58
2023-03-27T00:41:26.561Z,66.61
2023-03-27T00:42:18.554Z,66.62
2023-03-27T00:43:07.184Z,66.54
2023-03-27T00:43:58.997Z,66.28
2023-03-27T00:44:56.887Z,66.47
2023-03-27T00:45:49.870Z,66.55
2023-03-27T00:46:41.781Z,66.70
2023-03-27T00:47:33.739Z,66.94
2023-03-27T00:48:25.625Z,67.11
2023-03-27T00:49:17.525Z,67.16
2023-03-27T00:50:09.463Z,67.22
2023-03-27T00:51:01.340Z,67.21
2023-03-27T00:51:53.232Z,67.19
2023-03-27T00:52:45.065Z,67.19
2023-03-27T00:53:36.877Z,67.17
2023-03-27T00:54:28.785Z,67.15
2023-03-27T00:55:05.959Z,67.16
2023-03-27T00:55:57.808Z,67.12
2023-03-27T00:56:49.844Z,67.09
2023-03-27T00:57:41.857Z,67.08
2023-03-27T00:58:33.724Z,67.03
2023-03-27T00:59:25.623Z,67.01
2023-03-27T01:00:17.581Z,66.99
2023-03-27T01:01:09.624Z,67.02
2023-03-27T01:02:01.969Z,66.95
2023-03-27T01:02:54.041Z,66.89
2023-03-27T01:03:35.238Z,66.84
2023-03-27T01:04:27.130Z,66.81
2023-03-27T01:05:19.004Z,66.78
2023-03-27T01:06:10.968Z,66.78
2023-03-27T01:07:02.782Z,66.69
2023-03-27T01:08:00.448Z,65.14
2023-03-27T01:08:53.598Z,65.62
2023-03-27T01:09:38.201Z,65.00
2023-03-27T01:10:29.969Z,65.15
2023-03-27T01:11:21.799Z,65.43
2023-03-27T01:12:08.049Z,65.46
2023-03-27T01:12:59.936Z,65.44
2023-03-27T01:13:51.888Z,64.42
2023-03-27T01:14:43.775Z,64.79
2023-03-27T01:15:34.518Z,65.06
2023-03-27T01:16:26.506Z,65.20
2023-03-27T01:17:18.501Z,65.19
2023-03-27T01:18:10.476Z,65.32
2023-03-27T01:19:02.400Z,65.41
2023-03-27T01:19:54.243Z,65.41
2023-03-27T01:20:46.048Z,65.41
2023-03-27T01:21:37.914Z,65.41
2023-03-27T01:22:29.823Z,64.94
2023-03-27T01:23:59.093Z,64.97
2023-03-27T01:24:33.412Z,65.01
2023-03-27T01:25:25.407Z,65.00
2023-03-27T01:26:17.378Z,65.04
2023-03-27T01:27:27.640Z,65.14
2023-03-27T01:28:19.444Z,65.12
2023-03-27T01:29:11.129Z,65.09
2023-03-27T01:30:03.112Z,65.15
2023-03-27T01:30:55.400Z,65.24
2023-03-27T01:31:47.477Z,65.26
2023-03-27T01:32:39.428Z,65.27
2023-03-27T01:33:31.337Z,65.34
2023-03-27T01:34:16.180Z,65.43
2023-03-27T01:35:09.110Z,65.44
2023-03-27T01:36:00.979Z,65.48
2023-03-27T01:36:51.693Z,65.43
2023-03-27T01:37:43.547Z,65.38
2023-03-27T01:38:35.436Z,65.34
2023-03-27T01:39:27.308Z,65.34
2023-03-27T01:40:19.164Z,65.39
2023-03-27T01:41:11.026Z,65.17
2023-03-27T01:42:02.967Z,64.72
2023-03-27T01:42:37.986Z,65.00
2023-03-27T01:43:29.794Z,64.98
2023-03-27T01:44:21.752Z,65.00
2023-03-27T01:45:02.397Z,64.21
2023-03-27T01:45:54.376Z,63.84
2023-03-27T01:46:46.250Z,64.36
2023-03-27T01:47:38.154Z,64.52
2023-03-27T01:48:29.731Z,64.60
2023-03-27T01:49:21.564Z,64.66
2023-03-27T01:50:13.672Z,64.74
2023-03-27T01:51:05.553Z,64.80
2023-03-27T01:51:57.433Z,64.83
2023-03-27T01:52:49.269Z,64.77
2023-03-27T01:53:41.145Z,64.19
2023-03-27T01:54:33.050Z,64.20
2023-03-27T01:55:25.002Z,63.84
2023-03-27T01:56:16.891Z,64.08
2023-03-27T01:57:08.777Z,64.15
2023-03-27T01:58:00.680Z,64.24
2023-03-27T01:58:52.676Z,64.15
2023-03-27T01:59:44.667Z,64.16
2023-03-27T02:00:51.661Z,64.22
2023-03-27T02:01:45.309Z,64.38
2023-03-27T02:02:37.378Z,64.45
2023-03-27T02:03:29.328Z,64.48
2023-03-27T02:04:21.153Z,64.40
2023-03-27T02:05:12.960Z,64.37
2023-03-27T02:06:04.873Z,64.34
2023-03-27T02:06:56.864Z,64.31
2023-03-27T02:07:48.764Z,64.30
2023-03-27T02:08:40.732Z,64.30
2023-03-27T02:09:32.743Z,64.31
2023-03-27T02:10:24.642Z,64.28
2023-03-27T02:11:16.792Z,64.27
2023-03-27T02:12:08.741Z,64.28
2023-03-27T02:13:00.803Z,64.14
2023-03-27T02:13:52.654Z,64.18
2023-03-27T02:14:44.540Z,64.15
2023-03-27T02:15:36.454Z,64.13
2023-03-27T02:16:28.456Z,63.92
2023-03-27T02:17:14.881Z,63.29
2023-03-27T02:18:06.783Z,63.35
2023-03-27T02:18:58.558Z,63.29
2023-03-27T02:19:50.454Z,63.30
2023-03-27T02:20:42.324Z,63.10
2023-03-27T02:21:34.163Z,63.02
2023-03-27T02:22:38.120Z,62.52
2023-03-27T02:23:31.634Z,62.76
2023-03-27T02:24:23.926Z,62.69
2023-03-27T02:25:15.624Z,62.72
2023-03-27T02:26:07.535Z,62.99
2023-03-27T02:26:59.299Z,63.20
2023-03-27T02:27:51.078Z,62.80
2023-03-27T02:28:35.549Z,62.61
2023-03-27T02:29:27.408Z,62.86
2023-03-27T02:30:19.191Z,63.13
2023-03-27T02:31:32.170Z,63.29
2023-03-27T02:32:23.051Z,63.38
2023-03-27T02:33:07.330Z,63.32
2023-03-27T02:33:59.302Z,63.24
2023-03-27T02:34:51.175Z,63.18
2023-03-27T02:35:43.149Z,63.18
2023-03-27T02:36:35.047Z,63.26
2023-03-27T02:37:19.472Z,63.43
2023-03-27T02:38:11.284Z,63.50
2023-03-27T02:38:55.804Z,63.18
2023-03-27T02:39:47.809Z,63.16
2023-03-27T02:40:29.617Z,63.22
2023-03-27T02:41:21.543Z,63.24
2023-03-27T02:42:13.468Z,63.22
2023-03-27T02:43:03.944Z,62.96
2023-03-27T02:43:55.833Z,62.95
2023-03-27T02:44:35.100Z,62.78
2023-03-27T02:45:38.458Z,62.85
2023-03-27T02:46:15.508Z,62.74
2023-03-27T02:47:07.514Z,62.67
2023-03-27T02:47:59.545Z,62.72
2023-03-27T02:48:51.467Z,62.72
2023-03-27T02:49:43.229Z,62.76
2023-03-27T02:50:35.248Z,62.85
2023-03-27T02:51:27.183Z,62.88
2023-03-27T02:52:07.631Z,62.90
2023-03-27T02:52:59.505Z,63.00
2023-03-27T02:53:51.308Z,63.15
2023-03-27T02:54:43.101Z,63.31
2023-03-27T02:55:34.960Z,63.48
2023-03-27T02:56:26.757Z,63.24
2023-03-27T02:57:18.595Z,63.21
2023-03-27T02:58:10.565Z,63.35
2023-03-27T02:59:02.448Z,63.45
2023-03-27T02:59:54.384Z,63.54
2023-03-27T03:00:46.205Z,63.57
2023-03-27T03:01:32.093Z,63.71
2023-03-27T03:02:24.196Z,63.81
2023-03-27T03:03:16.188Z,63.91
2023-03-27T03:04:08.128Z,64.05
2023-03-27T03:04:48.488Z,64.09
2023-03-27T03:05:40.310Z,64.18
2023-03-27T03:06:32.071Z,64.20
2023-03-27T03:07:23.950Z,64.16
2023-03-27T03:08:15.703Z,64.16
2023-03-27T03:09:07.535Z,64.25
2023-03-27T03:09:59.335Z,64.27
2023-03-27T03:10:51.091Z,64.36
2023-03-27T03:11:42.895Z,64.37
2023-03-27T03:12:33.932Z,64.37
2023-03-27T03:13:25.662Z,64.33
2023-03-27T03:14:17.458Z,64.40
2023-03-27T03:15:09.299Z,64.42
2023-03-27T03:15:50.665Z,64.43
2023-03-27T03:16:42.573Z,64.30
2023-03-27T03:17:34.356Z,63.73
2023-03-27T03:18:26.352Z,63.61
2023-03-27T03:19:18.212Z,63.66
2023-03-27T03:20:09.984Z,63.65
2023-03-27T03:21:01.907Z,63.75
2023-03-27T03:21:53.795Z,63.79
2023-03-27T03:22:45.642Z,63.66
2023-03-27T03:23:37.455Z,63.63
2023-03-27T03:24:29.177Z,63.68
2023-03-27T03:25:20.981Z,63.80
2023-03-27T03:26:12.769Z,63.98
2023-03-27T03:27:07.226Z,64.09
2023-03-27T03:27:59.069Z,64.08
2023-03-27T03:29:00.553Z,64.27
2023-03-27T03:29:55.014Z,64.48
2023-03-27T03:30:46.815Z,64.63
2023-03-27T03:31:38.823Z,64.94
2023-03-27T03:32:30.645Z,65.24
2023-03-27T03:33:22.818Z,65.46
2023-03-27T03:34:14.696Z,65.23
2023-03-27T03:35:07.641Z,64.74
2023-03-27T03:35:59.517Z,65.01
2023-03-27T03:36:51.458Z,65.14
2023-03-27T03:37:46.242Z,65.35
2023-03-27T03:38:41.073Z,65.67
2023-03-27T03:39:32.940Z,65.14
2023-03-27T03:40:24.792Z,65.45
2023-03-27T03:41:16.858Z,65.60
2023-03-27T03:42:08.766Z,65.63
2023-03-27T03:43:00.628Z,65.89
2023-03-27T03:43:52.435Z,66.20
2023-03-27T03:44:44.381Z,66.34
2023-03-27T03:45:36.293Z,66.45
2023-03-27T03:46:28.104Z,66.63
2023-03-27T03:47:20.045Z,66.66
2023-03-27T03:48:11.935Z,66.13
2023-03-27T03:49:03.761Z,66.28
2023-03-27T03:49:55.693Z,65.74
2023-03-27T03:50:47.570Z,65.42
2023-03-27T03:51:33.528Z,65.33
2023-03-27T03:52:25.570Z,65.40
2023-03-27T03:53:17.401Z,65.17
2023-03-27T03:54:09.123Z,65.38
2023-03-27T03:55:01.050Z,65.07
2023-03-27T03:55:52.995Z,65.36
2023-03-27T03:56:44.841Z,65.68
2023-03-27T03:57:36.766Z,65.95
2023-03-27T03:58:34.595Z,66.03
2023-03-27T03:59:27.081Z,66.23
2023-03-27T04:00:19.021Z,66.26
2023-03-27T04:01:10.935Z,66.00
2023-03-27T04:02:02.913Z,66.06
2023-03-27T04:02:47.828Z,65.63
2023-03-27T04:03:39.881Z,65.65
2023-03-27T04:04:31.925Z,65.52
2023-03-27T04:05:22.501Z,65.54
2023-03-27T04:06:07.031Z,65.59
2023-03-27T04:06:58.935Z,65.64
2023-03-27T04:07:50.835Z,65.44
2023-03-27T04:08:42.685Z,65.34
2023-03-27T04:09:34.585Z,65.34
2023-03-27T04:10:26.442Z,65.32
2023-03-27T04:11:18.233Z,65.30
2023-03-27T04:12:10.107Z,65.48
2023-03-27T04:13:02.007Z,65.65
2023-03-27T04:13:42.750Z,65.55
2023-03-27T04:14:27.204Z,65.51
2023-03-27T04:15:19.072Z,65.64
2023-03-27T04:16:00.911Z,65.88
2023-03-27T04:16:52.729Z,65.91
2023-03-27T04:17:37.328Z,65.82
2023-03-27T04:18:24.874Z,65.84
2023-03-27T04:19:16.751Z,65.75
2023-03-27T04:20:08.582Z,65.79
2023-03-27T04:21:00.381Z,65.90
2023-03-27T04:21:52.344Z,66.07
2023-03-27T04:22:44.209Z,66.14
2023-03-27T04:23:36.132Z,66.15
2023-03-27T04:24:27.859Z,66.14
2023-03-27T04:25:09.598Z,66.38
2023-03-27T04:26:01.585Z,66.65
2023-03-27T04:26:42.096Z,66.37
2023-03-27T04:27:33.952Z,66.16
2023-03-27T04:28:25.642Z,66.24
2023-03-27T04:29:17.553Z,66.26
2023-03-27T04:30:09.383Z,66.21
2023-03-27T04:30:49.785Z,66.31
2023-03-27T04:31:41.639Z,66.47
2023-03-27T04:32:33.621Z,66.77
2023-03-27T04:33:25.390Z,66.75
2023-03-27T04:34:22.565Z,66.82
2023-03-27T04:35:14.465Z,66.99
2023-03-27T04:36:06.237Z,67.11
2023-03-27T04:36:59.369Z,67.32
2023-03-27T04:37:51.200Z,67.47
2023-03-27T04:38:43.061Z,67.55
2023-03-27T04:39:34.844Z,67.32
2023-03-27T04:40:15.462Z,66.93
2023-03-27T04:41:06.103Z,66.64
2023-03-27T04:41:58.133Z,66.21
2023-03-27T04:42:42.898Z,65.90
2023-03-27T04:43:34.626Z,66.00
2023-03-27T04:44:26.529Z,66.35
2023-03-27T04:45:18.441Z,66.66
2023-03-27T04:46:10.444Z,66.79
2023-03-27T04:47:02.488Z,66.83
2023-03-27T04:47:54.696Z,66.86
2023-03-27T04:48:46.676Z,66.81
2023-03-27T04:49:38.533Z,66.89
2023-03-27T04:50:30.408Z,67.02
2023-03-27T04:51:22.327Z,67.33
2023-03-27T04:52:14.296Z,67.48
2023-03-27T04:53:09.125Z,67.65
2023-03-27T04:54:00.846Z,67.85
2023-03-27T04:54:52.647Z,67.94
2023-03-27T04:55:27.048Z,68.08
2023-03-27T04:56:11.845Z,68.14
2023-03-27T04:57:03.815Z,67.62
2023-03-27T04:57:55.752Z,67.41
2023-03-27T04:58:47.624Z,67.39
2023-03-27T04:59:39.598Z,67.45
2023-03-27T05:00:31.459Z,67.26
2023-03-27T05:01:23.385Z,67.24
2023-03-27T05:02:15.117Z,67.15
2023-03-27T05:03:06.931Z,67.16
2023-03-27T05:03:59.072Z,67.33
2023-03-27T05:04:50.873Z,67.55
2023-03-27T05:05:42.870Z,67.59
2023-03-27T05:06:34.754Z,67.57
2023-03-27T05:07:26.759Z,67.61
2023-03-27T05:08:18.730Z,67.73
2023-03-27T05:09:10.751Z,67.84
2023-03-27T05:10:02.733Z,67.87
2023-03-27T05:10:55.053Z,67.96
2023-03-27T05:11:47.048Z,68.17
2023-03-27T05:12:39.047Z,67.93
2023-03-27T05:13:30.890Z,67.62
2023-03-27T05:14:22.791Z,67.66
2023-03-27T05:15:14.487Z,67.44
2023-03-27T05:16:06.286Z,66.34
2023-03-27T05:16:58.238Z,66.38
2023-03-27T05:17:49.952Z,66.69
2023-03-27T05:18:42.116Z,66.64
2023-03-27T05:19:34.010Z,66.99
2023-03-27T05:20:26.007Z,66.89
2023-03-27T05:21:17.838Z,66.94
2023-03-27T05:22:09.762Z,67.21
2023-03-27T05:23:01.670Z,67.43
2023-03-27T05:23:53.419Z,67.48
2023-03-27T05:24:45.214Z,67.55
2023-03-27T05:25:26.940Z,67.45
2023-03-27T05:26:18.811Z,67.43
2023-03-27T05:27:10.650Z,67.58
2023-03-27T05:27:55.511Z,67.58
2023-03-27T05:28:47.242Z,67.40
2023-03-27T05:29:47.058Z,66.69
2023-03-27T05:30:39.731Z,66.68
2023-03-27T05:31:31.634Z,66.44
2023-03-27T05:32:23.556Z,65.98
2023-03-27T05:33:15.414Z,65.98
2023-03-27T05:34:07.434Z,65.87
2023-03-27T05:34:51.886Z,65.88
2023-03-27T05:35:43.781Z,65.85
2023-03-27T05:36:35.758Z,66.01
2023-03-27T05:37:27.597Z,65.97
2023-03-27T05:38:19.558Z,65.99
2023-03-27T05:39:11.447Z,66.08
2023-03-27T05:40:02.443Z,66.21
2023-03-27T05:40:54.284Z,66.11
2023-03-27T05:41:46.242Z,66.27
2023-03-27T05:42:37.029Z,66.57
2023-03-27T05:43:28.803Z,66.46
2023-03-27T05:44:20.614Z,66.47
2023-03-27T05:45:13.626Z,66.33
2023-03-27T05:46:05.446Z,66.45
2023-03-27T05:46:57.495Z,66.37
2023-03-27T05:47:43.052Z,66.40
2023-03-27T05:48:34.995Z,66.56
2023-03-27T05:49:15.403Z,66.59
2023-03-27T05:50:07.263Z,66.64
2023-03-27T05:50:59.144Z,66.84
2023-03-27T05:51:47.016Z,66.89
2023-03-27T05:52:40.097Z,66.76
2023-03-27T05:53:27.935Z,66.66
2023-03-27T05:54:20.842Z,66.70
2023-03-27T05:55:12.668Z,66.71
2023-03-27T05:56:04.425Z,66.76
2023-03-27T05:56:56.299Z,66.88
2023-03-27T05:57:48.245Z,66.75
2023-03-27T05:58:40.083Z,66.82
2023-03-27T05:59:31.996Z,66.78
2023-03-27T06:00:23.775Z,66.78
2023-03-27T06:01:15.738Z,66.90
2023-03-27T06:02:07.796Z,66.85
2023-03-27T06:02:59.983Z,66.90
2023-03-27T06:03:51.998Z,66.96
2023-03-27T06:04:44.080Z,66.97
2023-03-27T06:05:35.536Z,67.08
2023-03-27T06:06:27.318Z,67.08
2023-03-27T06:07:19.186Z,67.12
2023-03-27T06:08:11.045Z,67.12
2023-03-27T06:09:02.931Z,67.21
2023-03-27T06:09:54.963Z,67.15
2023-03-27T06:10:47.056Z,67.13
2023-03-27T06:11:38.853Z,67.33
2023-03-27T06:12:30.632Z,67.51
2023-03-27T06:13:22.653Z,67.44
2023-03-27T06:14:14.577Z,67.47
2023-03-27T06:15:06.314Z,67.44
2023-03-27T06:15:58.375Z,67.47
2023-03-27T06:16:50.525Z,67.35
2023-03-27T06:17:42.444Z,67.35
2023-03-27T06:18:34.296Z,67.32
2023-03-27T06:19:26.247Z,67.47
2023-03-27T06:20:18.110Z,67.66
2023-03-27T06:21:09.918Z,67.67
2023-03-27T06:22:01.781Z,67.80
2023-03-27T06:22:53.759Z,67.80
2023-03-27T06:23:45.617Z,67.95
2023-03-27T06:24:37.571Z,67.95
2023-03-27T06:25:29.432Z,67.76
2023-03-27T06:26:21.340Z,67.34
2023-03-27T06:27:13.211Z,67.11
2023-03-27T06:28:05.045Z,66.99
2023-03-27T06:28:56.955Z,66.94
2023-03-27T06:29:41.761Z,66.89
2023-03-27T06:30:33.490Z,66.94
2023-03-27T06:31:25.615Z,66.86
2023-03-27T06:32:17.414Z,66.89
2023-03-27T06:33:09.357Z,66.96
2023-03-27T06:34:01.248Z,66.91
2023-03-27T06:34:53.083Z,66.94
2023-03-27T06:35:45.049Z,66.96
2023-03-27T06:36:45.099Z,66.94
2023-03-27T06:37:36.999Z,67.01
2023-03-27T06:38:29.125Z,67.24
2023-03-27T06:39:21.200Z,67.45
2023-03-27T06:40:13.099Z,67.62
2023-03-27T06:41:04.999Z,67.47
2023-03-27T06:41:56.778Z,67.11
2023-03-27T06:42:48.707Z,67.14
2023-03-27T06:43:40.553Z,67.12
2023-03-27T06:44:32.327Z,67.27
2023-03-27T06:45:24.316Z,67.40
2023-03-27T06:46:16.157Z,67.44
2023-03-27T06:46:56.755Z,67.42
2023-03-27T06:47:54.308Z,67.16
2023-03-27T06:48:47.731Z,67.18
2023-03-27T06:49:39.645Z,67.09
2023-03-27T06:50:31.485Z,67.13
2023-03-27T06:51:23.048Z,67.15
2023-03-27T06:52:00.188Z,66.99
2023-03-27T06:52:52.103Z,66.95
2023-03-27T06:53:38.118Z,66.95
2023-03-27T06:54:30.234Z,67.06
2023-03-27T06:55:22.207Z,67.03
2023-03-27T06:56:14.083Z,67.05
2023-03-27T06:57:05.953Z,67.02
2023-03-27T06:57:46.556Z,67.00
2023-03-27T06:58:38.540Z,67.07
2023-03-27T06:59:30.457Z,67.25
2023-03-27T07:00:22.338Z,67.19
2023-03-27T07:01:14.180Z,67.24
2023-03-27T07:01:56.477Z,67.41
2023-03-27T07:02:48.536Z,67.24
2023-03-27T07:03:40.837Z,67.11
2023-03-27T07:04:32.652Z,67.05
2023-03-27T07:05:24.578Z,67.17
2023-03-27T07:06:16.571Z,67.37
2023-03-27T07:07:08.373Z,67.59
2023-03-27T07:08:05.459Z,67.76
2023-03-27T07:09:06.718Z,67.94
2023-03-27T07:09:58.474Z,68.02
2023-03-27T07:10:59.921Z,68.08
2023-03-27T07:11:59.685Z,67.80
2023-03-27T07:12:51.605Z,68.03
2023-03-27T07:13:43.489Z,68.11
2023-03-27T07:14:35.330Z,68.13
2023-03-27T07:15:27.297Z,68.29
2023-03-27T07:16:18.859Z,68.38
2023-03-27T07:16:59.251Z,68.19
2023-03-27T07:17:51.162Z,68.28
2023-03-27T07:18:43.206Z,68.42
2023-03-27T07:19:35.232Z,68.51
2023-03-27T07:20:15.847Z,68.59
2023-03-27T07:21:07.767Z,68.60
2023-03-27T07:21:59.665Z,68.57
2023-03-27T07:22:51.443Z,68.07
2023-03-27T07:23:43.495Z,68.02
2023-03-27T07:24:35.326Z,68.02
2023-03-27T07:25:27.175Z,68.07
2023-03-27T07:26:19.051Z,68.04
2023-03-27T07:27:10.953Z,67.85
2023-03-27T07:28:04.364Z,67.47
2023-03-27T07:28:57.078Z,67.17
2023-03-27T07:29:49.822Z,67.08
2023-03-27T07:30:46.172Z,67.01
2023-03-27T07:32:36.936Z,67.06
2023-03-27T07:33:29.644Z,67.20
2023-03-27T07:34:21.647Z,67.37
2023-03-27T07:34:56.482Z,67.45
2023-03-27T07:35:48.543Z,67.57
2023-03-27T07:36:40.488Z,67.65
2023-03-27T07:37:32.237Z,67.74
2023-03-27T07:38:24.199Z,67.83
2023-03-27T07:39:16.017Z,67.85
2023-03-27T07:40:07.976Z,67.97
2023-03-27T07:40:59.985Z,67.95
2023-03-27T07:41:51.881Z,67.71
2023-03-27T07:42:43.531Z,67.70
2023-03-27T07:43:35.512Z,67.71
2023-03-27T07:44:20.835Z,67.73
2023-03-27T07:45:12.580Z,67.51
2023-03-27T07:46:04.528Z,67.69
2023-03-27T07:46:56.465Z,67.29
2023-03-27T07:47:50.613Z,67.58
2023-03-27T07:48:31.746Z,67.76
2023-03-27T07:49:39.427Z,67.89
2023-03-27T07:50:32.475Z,68.13
2023-03-27T07:51:25.404Z,67.79
2023-03-27T07:52:17.324Z,67.38
2023-03-27T07:53:09.234Z,66.76
2023-03-27T07:54:00.954Z,66.60
2023-03-27T07:54:52.805Z,66.80
2023-03-27T07:55:44.655Z,67.01
2023-03-27T07:56:36.643Z,67.00
2023-03-27T07:57:28.421Z,66.94
2023-03-27T07:58:20.460Z,67.03
2023-03-27T07:59:01.356Z,67.05
2023-03-27T07:59:53.058Z,66.91
2023-03-27T08:00:44.943Z,66.68
2023-03-27T08:01:36.773Z,66.69
2023-03-27T08:02:28.625Z,66.78
2023-03-27T08:03:20.643Z,66.85
2023-03-27T08:04:12.809Z,66.97
2023-03-27T08:05:04.753Z,66.97
2023-03-27T08:05:56.862Z,66.85
2023-03-27T08:06:48.705Z,66.90
2023-03-27T08:07:40.689Z,66.91
2023-03-27T08:08:32.626Z,67.00
2023-03-27T08:09:24.424Z,67.10
2023-03-27T08:10:16.222Z,67.33
2023-03-27T08:11:13.472Z,67.35
2023-03-27T08:12:12.866Z,67.55
2023-03-27T08:12:53.422Z,67.39
2023-03-27T08:13:45.403Z,67.33
2023-03-27T08:14:37.238Z,67.52
2023-03-27T08:15:23.560Z,67.58
2023-03-27T08:16:15.410Z,67.60
2023-03-27T08:17:15.593Z,67.28
2023-03-27T08:18:07.801Z,67.26
2023-03-27T08:18:59.728Z,67.38
2023-03-27T08:19:51.656Z,67.16
2023-03-27T08:20:43.540Z,67.30
2023-03-27T08:21:35.419Z,67.41
2023-03-27T08:22:27.249Z,67.52
2023-03-27T08:23:19.220Z,67.63
2023-03-27T08:24:11.101Z,67.34
2023-03-27T08:25:02.925Z,67.34
2023-03-27T08:25:54.874Z,67.45
2023-03-27T08:26:46.832Z,67.59
2023-03-27T08:27:31.321Z,67.59
2023-03-27T08:28:23.201Z,67.68
2023-03-27T08:29:15.033Z,67.85
2023-03-27T08:29:57.211Z,67.23
2023-03-27T08:30:49.255Z,67.29
2023-03-27T08:31:29.777Z,67.53
2023-03-27T08:32:21.814Z,67.51
2023-03-27T08:33:13.711Z,67.62
2023-03-27T08:34:05.696Z,67.71
2023-03-27T08:34:57.758Z,67.84
2023-03-27T08:35:49.941Z,67.91
2023-03-27T08:36:41.855Z,67.82
2023-03-27T08:37:33.912Z,68.05
2023-03-27T08:38:27.024Z,68.18
2023-03-27T08:39:19.231Z,67.48
2023-03-27T08:40:01.231Z,67.53
2023-03-27T08:40:53.301Z,67.42
2023-03-27T08:41:37.974Z,67.26
2023-03-27T08:42:29.850Z,67.20
2023-03-27T08:43:21.745Z,67.44
2023-03-27T08:44:13.744Z,67.56
2023-03-27T08:45:05.688Z,67.63
2023-03-27T08:45:57.794Z,67.64
2023-03-27T08:46:49.921Z,67.26
2023-03-27T08:47:41.954Z,67.39
2023-03-27T08:48:33.979Z,67.47
2023-03-27T08:49:25.804Z,67.61
2023-03-27T08:50:17.688Z,67.77
2023-03-27T08:51:09.519Z,67.88
2023-03-27T08:52:01.248Z,67.92
2023-03-27T08:52:53.149Z,68.02
2023-03-27T08:53:36.150Z,68.10
2023-03-27T08:54:28.025Z,68.17
2023-03-27T08:55:19.869Z,68.10
2023-03-27T08:56:11.548Z,68.23
2023-03-27T08:57:03.440Z,68.27
2023-03-27T08:57:43.919Z,68.38
2023-03-27T08:58:35.811Z,68.42
2023-03-27T08:59:27.841Z,68.46
2023-03-27T09:00:19.803Z,68.25
2023-03-27T09:01:11.762Z,68.38
2023-03-27T09:02:07.533Z,68.51
2023-03-27T09:02:59.633Z,68.64
2023-03-27T09:03:51.707Z,68.74
2023-03-27T09:04:43.644Z,68.89
2023-03-27T09:05:35.525Z,69.08
2023-03-27T09:06:27.589Z,69.08
2023-03-27T09:07:19.460Z,68.75
2023-03-27T09:08:11.302Z,68.08
2023-03-27T09:09:03.322Z,68.16
2023-03-27T09:09:55.186Z,68.24
2023-03-27T09:10:47.385Z,67.69
2023-03-27T09:11:39.427Z,68.07
2023-03-27T09:12:31.521Z,68.26
2023-03-27T09:13:23.471Z,68.17
2023-03-27T09:14:15.486Z,68.23
2023-03-27T09:15:07.423Z,68.26
2023-03-27T09:15:59.816Z,68.08
2023-03-27T09:16:51.839Z,67.92
2023-03-27T09:17:43.699Z,67.45
2023-03-27T09:18:35.597Z,67.06
2023-03-27T09:19:27.457Z,67.02
2023-03-27T09:20:19.450Z,66.94
2023-03-27T09:21:11.537Z,66.97
2023-03-27T09:22:03.361Z,66.98
2023-03-27T09:22:55.157Z,67.16
2023-03-27T09:23:46.919Z,67.26
2023-03-27T09:24:31.822Z,67.18
2023-03-27T09:25:23.637Z,67.26
2023-03-27T09:26:15.658Z,67.21
2023-03-27T09:27:07.778Z,67.20
2023-03-27T09:27:59.678Z,67.23
2023-03-27T09:28:51.592Z,67.24
2023-03-27T09:29:43.572Z,67.40
2023-03-27T09:30:35.455Z,67.38
2023-03-27T09:31:27.474Z,67.47
2023-03-27T09:32:19.404Z,67.49
2023-03-27T09:33:11.556Z,67.54
2023-03-27T09:34:03.368Z,67.72
2023-03-27T09:34:55.200Z,67.80
2023-03-27T09:35:47.124Z,67.86
2023-03-27T09:36:39.156Z,67.78
2023-03-27T09:37:30.971Z,67.94
2023-03-27T09:38:22.719Z,68.06
2023-03-27T09:39:14.678Z,67.97
2023-03-27T09:40:06.700Z,68.07
2023-03-27T09:40:58.512Z,68.09
2023-03-27T09:41:38.803Z,68.19
2023-03-27T09:42:30.645Z,68.28
2023-03-27T09:43:24.413Z,68.25
2023-03-27T09:44:16.540Z,68.31
2023-03-27T09:45:08.337Z,68.28
2023-03-27T09:45:47.589Z,68.32
2023-03-27T09:46:39.666Z,68.42
2023-03-27T09:47:31.619Z,68.52
2023-03-27T09:48:23.506Z,68.60
2023-03-27T09:49:15.405Z,68.57
2023-03-27T09:50:07.310Z,68.71
2023-03-27T09:50:59.240Z,68.60
2023-03-27T09:51:51.031Z,68.68
2023-03-27T09:52:42.829Z,68.73
2023-03-27T09:53:34.771Z,68.55
2023-03-27T09:54:26.696Z,68.46
2023-03-27T09:55:18.426Z,68.35
2023-03-27T09:56:10.363Z,68.33
2023-03-27T09:57:02.258Z,68.46
2023-03-27T09:57:54.107Z,68.42
2023-03-27T09:58:46.047Z,68.41
2023-03-27T09:59:26.426Z,68.66
2023-03-27T10:00:18.329Z,68.58
2023-03-27T10:01:10.265Z,68.38
2023-03-27T10:02:02.143Z,68.36
2023-03-27T10:02:42.753Z,68.30
2023-03-27T10:03:34.757Z,68.24
2023-03-27T10:04:27.689Z,68.18
2023-03-27T10:05:19.386Z,68.12
2023-03-27T10:06:11.243Z,68.19
2023-03-27T10:07:03.130Z,68.29
2023-03-27T10:07:54.887Z,68.27
2023-03-27T10:08:46.949Z,68.12
2023-03-27T10:09:38.826Z,68.19
2023-03-27T10:10:30.692Z,68.36
2023-03-27T10:11:22.477Z,68.30
2023-03-27T10:12:14.339Z,68.42
2023-03-27T10:13:06.217Z,68.26
2023-03-27T10:13:58.219Z,68.48
2023-03-27T10:14:52.241Z,68.42
2023-03-27T10:15:44.715Z,68.41
2023-03-27T10:16:39.804Z,68.65
2023-03-27T10:17:31.780Z,68.84
2023-03-27T10:18:23.582Z,68.66
2023-03-27T10:19:00.762Z,68.68
2023-03-27T10:19:52.573Z,68.62
2023-03-27T10:20:44.523Z,68.56
2023-03-27T10:21:36.115Z,68.65
2023-03-27T10:22:27.897Z,68.64
2023-03-27T10:23:19.857Z,68.85
2023-03-27T10:24:11.761Z,68.78
2023-03-27T10:25:03.699Z,68.74
2023-03-27T10:25:55.376Z,68.64
2023-03-27T10:26:47.174Z,68.92
2023-03-27T10:27:39.048Z,69.13
2023-03-27T10:28:31.018Z,69.05
2023-03-27T10:29:15.572Z,68.87
2023-03-27T10:30:08.548Z,68.84
2023-03-27T10:31:00.434Z,69.06
2023-03-27T10:31:52.395Z,68.86
2023-03-27T10:32:44.253Z,68.92
2023-03-27T10:33:36.033Z,68.91
2023-03-27T10:34:27.928Z,69.11
2023-03-27T10:35:19.867Z,68.96
2023-03-27T10:36:04.492Z,69.14
2023-03-27T10:36:56.427Z,69.06
2023-03-27T10:37:50.278Z,69.08
2023-03-27T10:38:42.994Z,69.06
2023-03-27T10:39:35.012Z,69.33
2023-03-27T10:40:27.033Z,69.13
2023-03-27T10:41:28.100Z,69.12
2023-03-27T10:42:21.004Z,69.20
2023-03-27T10:43:13.090Z,69.18
2023-03-27T10:44:03.552Z,69.16
2023-03-27T10:44:55.323Z,69.17
2023-03-27T10:45:47.170Z,69.20
2023-03-27T10:46:38.995Z,69.54
2023-03-27T10:47:19.789Z,69.67
2023-03-27T10:48:11.752Z,69.78
2023-03-27T10:49:03.680Z,69.67
2023-03-27T10:49:55.497Z,69.43
2023-03-27T10:50:47.456Z,69.45
2023-03-27T10:51:46.204Z,69.53
2023-03-27T10:52:38.781Z,69.39
2023-03-27T10:53:30.765Z,69.35
2023-03-27T10:54:22.628Z,69.46
2023-03-27T10:55:14.552Z,69.57
2023-03-27T10:56:06.436Z,69.52
2023-03-27T10:56:58.341Z,69.51
2023-03-27T10:57:53.395Z,69.57
2023-03-27T10:58:46.278Z,69.73
2023-03-27T10:59:41.963Z,69.71
2023-03-27T11:00:34.096Z,69.64
2023-03-27T11:01:26.825Z,69.60
2023-03-27T11:02:18.749Z,69.48